Time;durP1;ratioP1;P1;durP2;ratioP2;P2;SDS_P1;SDS_P2;PMS_P1;PMS_P2;Temp;Humidity;BMP_temperature;BMP_pressure;BME280_temperature;BME280_humidity;BME280_pressure;Samples;Min_cycle;Max_cycle;Signal;HPM_P1;HPM_P2
2021/12/15 00:01:44;;;;;;;31.67;19.30;;;10.30;99.90;;;;;;5070320;28;20628;-73
2021/12/15 00:04:10;;;;;;;30.63;18.37;;;10.30;99.90;;;;;;5065662;28;20622;-73
2021/12/15 00:06:36;;;;;;;30.80;18.70;;;10.30;99.90;;;;;;5074690;28;20786;-75
2021/12/15 00:09:07;;;;;;;28.67;17.00;;;10.30;99.90;;;;;;5060362;28;20608;-74
2021/12/15 00:11:36;;;;;;;28.70;17.80;;;10.30;99.90;;;;;;5068041;28;20610;-74
2021/12/15 00:14:15;;;;;;;29.77;17.57;;;10.30;99.90;;;;;;5063666;28;20679;-74
2021/12/15 00:16:42;;;;;;;25.27;16.50;;;10.30;99.90;;;;;;5073049;28;20659;-74
2021/12/15 00:19:08;;;;;;;29.70;17.90;;;10.30;99.90;;;;;;5073194;28;20610;-74
2021/12/15 00:21:34;;;;;;;30.70;17.73;;;10.30;99.90;;;;;;5070562;28;20657;-74
2021/12/15 00:24:00;;;;;;;29.97;18.43;;;10.30;99.90;;;;;;5073575;28;20995;-74
2021/12/15 00:26:26;;;;;;;33.20;18.87;;;10.30;99.90;;;;;;5072859;28;20983;-74
2021/12/15 00:28:52;;;;;;;29.13;17.40;;;10.20;99.90;;;;;;5074110;28;20627;-74
2021/12/15 00:31:19;;;;;;;28.67;18.60;;;10.20;99.90;;;;;;5059853;28;20249;-74
2021/12/15 00:33:45;;;;;;;28.50;18.43;;;10.30;99.90;;;;;;5057066;28;20620;-75
2021/12/15 00:36:14;;;;;;;33.30;18.47;;;10.30;99.90;;;;;;5073663;28;21242;-74
2021/12/15 00:38:40;;;;;;;28.23;17.57;;;10.30;99.90;;;;;;5074301;28;20720;-74
2021/12/15 00:41:07;;;;;;;28.87;18.20;;;10.30;99.90;;;;;;5069418;28;20689;-74
2021/12/15 00:43:34;;;;;;;28.20;17.97;;;10.30;99.90;;;;;;5075218;28;20629;-74
2021/12/15 00:46:03;;;;;;;29.50;17.87;;;10.30;99.90;;;;;;5072727;28;20637;-74
2021/12/15 00:48:31;;;;;;;28.70;18.10;;;10.30;99.90;;;;;;5074845;28;20928;-74
2021/12/15 00:50:57;;;;;;;29.90;16.80;;;10.30;99.90;;;;;;5060045;28;21062;-74
2021/12/15 00:53:23;;;;;;;25.50;16.33;;;10.30;99.90;;;;;;5075181;28;20678;-74
2021/12/15 00:55:49;;;;;;;29.67;18.07;;;10.30;99.90;;;;;;5075069;28;20644;-75
2021/12/15 00:58:14;;;;;;;26.20;16.77;;;10.30;99.90;;;;;;5073887;28;20702;-75
2021/12/15 01:00:44;;;;;;;27.47;17.50;;;10.30;99.90;;;;;;5070442;28;20223;-74
2021/12/15 01:03:10;;;;;;;25.90;16.47;;;10.30;99.90;;;;;;5074521;28;20655;-74
2021/12/15 01:05:40;;;;;;;30.47;17.80;;;10.30;99.90;;;;;;5071537;28;20615;-74
2021/12/15 01:08:12;;;;;;;27.17;16.10;;;10.30;99.90;;;;;;5074010;28;20605;-75
2021/12/15 01:11:00;;;;;;;25.70;15.67;;;10.30;99.90;;;;;;5048473;28;20706;-74
2021/12/15 01:21:45;;;;;;;26.97;17.10;;;10.20;99.90;;;;;;5077097;28;20764;-74
2021/12/15 01:24:13;;;;;;;28.40;19.30;;;10.30;99.90;;;;;;5073486;28;21175;-75
2021/12/15 01:26:39;;;;;;;25.23;16.50;;;10.30;99.90;;;;;;5073638;28;20652;-74
2021/12/15 01:29:07;;;;;;;27.37;15.97;;;10.30;99.90;;;;;;5056960;28;20608;-74
2021/12/15 01:31:33;;;;;;;27.20;17.23;;;10.30;99.90;;;;;;5075466;28;20615;-74
2021/12/15 01:33:59;;;;;;;26.20;16.60;;;10.30;99.90;;;;;;5073108;28;21466;-74
2021/12/15 01:36:28;;;;;;;26.47;15.10;;;10.40;99.90;;;;;;5072935;28;20276;-74
2021/12/15 01:38:54;;;;;;;26.50;16.17;;;10.40;99.90;;;;;;5072380;28;20609;-74
2021/12/15 01:41:23;;;;;;;26.50;16.93;;;10.40;99.90;;;;;;5076627;28;20658;-75
2021/12/15 01:47:01;;;;;;;21.20;15.40;;;10.30;99.90;;;;;;5068084;28;20653;-74
2021/12/15 01:49:29;;;;;;;29.13;17.37;;;10.40;99.90;;;;;;5069530;28;20660;-74
2021/12/15 01:52:00;;;;;;;24.50;15.70;;;10.40;99.90;;;;;;5075347;28;20716;-74
2021/12/15 01:54:34;;;;;;;25.60;16.03;;;10.40;99.90;;;;;;5072232;28;20611;-74
2021/12/15 01:57:03;;;;;;;26.77;16.30;;;10.40;99.90;;;;;;5070726;28;20652;-74
2021/12/15 01:59:33;;;;;;;22.67;14.40;;;10.40;99.90;;;;;;5070635;28;21211;-75
2021/12/15 02:02:00;;;;;;;24.17;15.53;;;10.40;99.90;;;;;;5060119;28;20656;-74
2021/12/15 02:04:29;;;;;;;24.97;15.40;;;10.40;99.90;;;;;;5068601;28;20625;-74
2021/12/15 02:06:54;;;;;;;24.30;16.83;;;10.40;99.90;;;;;;5054665;28;20648;-74
2021/12/15 02:12:02;;;;;;;24.50;16.07;;;10.40;99.90;;;;;;5071911;28;20590;-74
2021/12/15 02:14:30;;;;;;;23.33;15.60;;;10.50;99.90;;;;;;5070116;28;20589;-76
2021/12/15 02:16:57;;;;;;;24.60;16.30;;;10.40;99.90;;;;;;5070769;28;21124;-74
2021/12/15 02:19:23;;;;;;;23.53;15.90;;;10.50;99.90;;;;;;5073488;28;20633;-74
2021/12/15 02:21:53;;;;;;;23.00;15.37;;;10.50;99.90;;;;;;5071828;28;20652;-74
2021/12/15 02:24:19;;;;;;;22.77;15.43;;;10.50;99.90;;;;;;5058118;28;20724;-74
2021/12/15 02:26:49;;;;;;;26.07;16.53;;;10.50;99.90;;;;;;5045758;28;20668;-74
2021/12/15 02:29:22;;;;;;;22.70;15.00;;;10.50;99.90;;;;;;5066135;28;20715;-74
2021/12/15 02:31:57;;;;;;;25.27;16.43;;;10.50;99.90;;;;;;5057294;28;20983;-74
2021/12/15 02:37:20;;;;;;;27.80;16.47;;;10.50;99.90;;;;;;5051244;28;21032;-74
2021/12/15 02:39:54;;;;;;;26.73;17.30;;;10.50;99.90;;;;;;5082461;28;20656;-74
2021/12/15 02:42:30;;;;;;;27.63;17.20;;;10.50;99.90;;;;;;5089624;28;20649;-74
2021/12/15 02:44:56;;;;;;;29.10;17.90;;;10.50;99.90;;;;;;5086999;28;20740;-74
2021/12/15 02:47:29;;;;;;;26.37;16.80;;;10.50;99.90;;;;;;5044609;28;20790;-74
2021/12/15 02:50:01;;;;;;;28.63;18.13;;;10.60;99.90;;;;;;5065479;28;20226;-74
2021/12/15 02:52:27;;;;;;;24.80;16.57;;;10.50;99.90;;;;;;5072435;28;20617;-74
2021/12/15 02:54:54;;;;;;;28.37;16.90;;;10.50;99.90;;;;;;5071947;28;20629;-73
2021/12/15 02:57:23;;;;;;;28.00;17.50;;;10.50;99.90;;;;;;5069653;28;20657;-74
2021/12/15 02:59:59;;;;;;;27.03;16.60;;;10.50;99.90;;;;;;5065943;28;20651;-73
2021/12/15 03:03:08;;;;;;;;;;;;;;;;;;;;;
2021/12/15 03:05:15;;;;;;;29.20;19.13;;;10.60;99.90;;;;;;5075457;28;21127;-74
2021/12/15 03:07:55;;;;;;;33.80;19.20;;;10.60;99.90;;;;;;5070101;28;21412;-73
2021/12/15 03:15:55;;;;;;;26.67;16.03;;;10.60;99.90;;;;;;5070287;28;20589;-74
2021/12/15 03:18:24;;;;;;;29.30;17.43;;;10.60;99.90;;;;;;5072894;28;21102;-74
2021/12/15 03:20:53;;;;;;;26.70;18.27;;;10.60;99.90;;;;;;5056290;28;20666;-74
2021/12/15 03:23:24;;;;;;;29.20;18.13;;;10.70;99.90;;;;;;5073824;28;21014;-73
2021/12/15 03:25:51;;;;;;;24.50;15.37;;;10.60;99.90;;;;;;5073992;28;20597;-73
2021/12/15 03:34:09;;;;;;;26.00;17.33;;;10.60;99.90;;;;;;5076215;28;20589;-73
2021/12/15 03:39:44;;;;;;;30.23;18.50;;;10.60;99.90;;;;;;5046937;28;20640;-73
2021/12/15 03:42:16;;;;;;;28.23;16.73;;;10.70;99.90;;;;;;5075444;28;20697;-73
2021/12/15 03:44:44;;;;;;;29.50;17.93;;;10.70;99.90;;;;;;5075895;28;20585;-73
2021/12/15 03:47:20;;;;;;;30.83;17.13;;;10.70;99.90;;;;;;5075440;28;20638;-73
2021/12/15 03:49:46;;;;;;;30.37;18.70;;;10.80;99.90;;;;;;5077201;28;20638;-74
2021/12/15 03:52:13;;;;;;;27.50;17.77;;;10.80;99.90;;;;;;5077146;28;20704;-73
2021/12/15 03:54:42;;;;;;;33.57;18.13;;;10.70;99.90;;;;;;5073445;28;20604;-73
2021/12/15 03:57:08;;;;;;;30.53;18.13;;;10.80;99.90;;;;;;5077773;28;20659;-73
2021/12/15 03:59:35;;;;;;;30.70;17.47;;;10.80;99.90;;;;;;5078571;28;20640;-73
2021/12/15 04:02:01;;;;;;;29.80;18.23;;;10.80;99.90;;;;;;5077305;28;20647;-74
2021/12/15 04:04:27;;;;;;;29.70;17.90;;;10.80;99.90;;;;;;5074526;28;20708;-74
2021/12/15 04:06:53;;;;;;;34.63;19.67;;;10.80;99.90;;;;;;5076148;28;21086;-74
2021/12/15 04:09:19;;;;;;;34.00;18.33;;;10.80;99.90;;;;;;5075212;28;20896;-73
2021/12/15 04:11:45;;;;;;;32.00;18.80;;;10.80;99.90;;;;;;5075386;28;20195;-74
2021/12/15 04:14:22;;;;;;;37.90;19.30;;;10.80;99.90;;;;;;5073480;28;20608;-73
2021/12/15 04:17:06;;;;;;;32.90;18.93;;;10.80;99.90;;;;;;5075287;28;20651;-74
2021/12/15 04:19:36;;;;;;;37.50;19.20;;;10.80;99.90;;;;;;5074990;28;21009;-73
2021/12/15 04:22:03;;;;;;;31.67;19.63;;;10.80;99.90;;;;;;5077277;28;20644;-74
2021/12/15 04:24:32;;;;;;;33.40;19.47;;;10.80;99.90;;;;;;5077013;28;20644;-74
2021/12/15 04:26:59;;;;;;;31.60;18.03;;;10.80;99.90;;;;;;5073508;28;20751;-74
2021/12/15 04:29:27;;;;;;;33.10;18.97;;;10.70;99.90;;;;;;5074246;28;20616;-74
2021/12/15 04:32:03;;;;;;;32.77;18.27;;;10.80;99.90;;;;;;5076552;28;20644;-74
2021/12/15 04:34:29;;;;;;;35.73;19.10;;;10.80;99.90;;;;;;5074211;28;20629;-73
2021/12/15 04:36:55;;;;;;;39.03;20.27;;;10.80;99.90;;;;;;5076495;28;20981;-75
2021/12/15 04:39:30;;;;;;;36.10;18.63;;;10.80;99.90;;;;;;5076070;28;20280;-73
2021/12/15 04:41:57;;;;;;;34.30;19.17;;;10.80;99.90;;;;;;5077885;28;20225;-74
2021/12/15 04:44:26;;;;;;;33.30;17.47;;;10.80;99.90;;;;;;5074107;28;20609;-74
2021/12/15 04:47:02;;;;;;;35.57;18.87;;;10.80;99.90;;;;;;5070913;28;20655;-74
2021/12/15 04:49:36;;;;;;;36.73;18.80;;;10.80;99.90;;;;;;5074019;28;20675;-74
2021/12/15 04:52:05;;;;;;;32.63;17.87;;;10.80;99.90;;;;;;5076822;28;20588;-74
2021/12/15 04:54:34;;;;;;;36.13;19.60;;;10.90;99.90;;;;;;5073606;28;20604;-74
2021/12/15 04:57:01;;;;;;;34.63;18.93;;;10.80;99.90;;;;;;5059472;28;20739;-74
2021/12/15 04:59:27;;;;;;;33.23;18.10;;;10.90;99.90;;;;;;5077188;28;21192;-74
2021/12/15 05:01:53;;;;;;;34.37;17.83;;;10.90;99.90;;;;;;5074472;28;20663;-73
2021/12/15 05:04:22;;;;;;;31.90;18.00;;;10.90;99.90;;;;;;5077251;28;20604;-73
2021/12/15 05:06:48;;;;;;;37.47;18.93;;;10.90;99.90;;;;;;5074098;28;20668;-74
2021/12/15 05:09:15;;;;;;;33.67;19.73;;;10.90;99.90;;;;;;5077359;28;20604;-74
2021/12/15 05:11:41;;;;;;;34.43;18.77;;;10.90;99.90;;;;;;5077071;28;20261;-74
2021/12/15 05:14:10;;;;;;;33.70;18.03;;;10.90;99.90;;;;;;5076346;28;20651;-74
2021/12/15 05:16:36;;;;;;;33.53;19.43;;;11.00;99.90;;;;;;5073445;28;20645;-73
2021/12/15 05:19:04;;;;;;;35.97;18.80;;;10.90;99.90;;;;;;5077812;28;20646;-75
2021/12/15 05:21:33;;;;;;;35.60;19.10;;;11.00;99.90;;;;;;5078578;28;20640;-75
2021/12/15 05:24:07;;;;;;;35.07;18.97;;;10.90;99.90;;;;;;5076645;28;21182;-72
2021/12/15 05:26:37;;;;;;;41.27;20.03;;;11.00;99.90;;;;;;5075710;28;20637;-73
2021/12/15 05:29:03;;;;;;;35.70;18.40;;;11.00;99.90;;;;;;5075777;28;20719;-73
2021/12/15 05:31:29;;;;;;;41.33;19.90;;;11.00;99.90;;;;;;5076256;28;20652;-73
2021/12/15 05:33:57;;;;;;;44.37;19.87;;;10.90;99.90;;;;;;5085541;28;20183;-73
2021/12/15 05:36:25;;;;;;;40.30;18.93;;;11.00;99.90;;;;;;5084067;28;20236;-75
2021/12/15 05:38:51;;;;;;;42.87;20.57;;;11.00;99.90;;;;;;5074539;28;20616;-73
2021/12/15 05:41:22;;;;;;;39.57;19.30;;;11.00;99.90;;;;;;5071101;28;20657;-74
2021/12/15 05:43:47;;;;;;;43.47;21.23;;;11.00;99.90;;;;;;5074208;28;20627;-73
2021/12/15 05:46:16;;;;;;;36.20;19.20;;;11.00;99.90;;;;;;5078039;28;20633;-74
2021/12/15 05:48:41;;;;;;;41.20;19.93;;;11.00;99.90;;;;;;5074487;28;20191;-74
2021/12/15 05:51:07;;;;;;;40.30;20.77;;;11.00;99.90;;;;;;5074942;28;20687;-74
2021/12/15 05:53:35;;;;;;;46.73;22.50;;;11.00;99.90;;;;;;5076007;28;20187;-74
2021/12/15 05:56:01;;;;;;;45.13;21.10;;;11.00;99.90;;;;;;5069281;28;20375;-74
2021/12/15 05:58:28;;;;;;;39.20;20.77;;;11.00;99.90;;;;;;5071781;28;20632;-74
2021/12/15 06:00:53;;;;;;;44.87;20.87;;;11.00;99.90;;;;;;5067774;28;20240;-73
2021/12/15 06:03:19;;;;;;;40.33;20.87;;;11.00;99.90;;;;;;5073521;28;20621;-74
2021/12/15 06:05:45;;;;;;;42.00;21.17;;;11.00;99.90;;;;;;5071572;28;20656;-74
2021/12/15 06:08:11;;;;;;;43.77;21.43;;;11.00;99.90;;;;;;5074966;28;20654;-74
2021/12/15 06:10:41;;;;;;;47.53;22.60;;;11.10;99.90;;;;;;5075330;28;20218;-74
2021/12/15 06:13:10;;;;;;;42.73;20.70;;;11.10;99.90;;;;;;5072887;28;20643;-74
2021/12/15 06:15:40;;;;;;;45.80;21.20;;;11.10;99.90;;;;;;5064506;28;21153;-74
2021/12/15 06:18:12;;;;;;;46.17;23.50;;;11.10;99.90;;;;;;5073337;28;21097;-74
2021/12/15 06:20:39;;;;;;;51.33;23.20;;;11.10;99.90;;;;;;5050737;28;20691;-74
2021/12/15 06:23:11;;;;;;;51.10;24.00;;;11.10;99.90;;;;;;5056785;28;21034;-74
2021/12/15 06:25:38;;;;;;;46.40;23.60;;;11.10;99.90;;;;;;5039328;28;20768;-77
2021/12/15 06:28:05;;;;;;;47.50;22.70;;;11.10;99.90;;;;;;5069599;28;21587;-74
2021/12/15 06:30:37;;;;;;;52.27;24.90;;;11.10;99.90;;;;;;5059011;28;20706;-74
2021/12/15 06:33:04;;;;;;;50.70;23.53;;;11.10;99.90;;;;;;5065343;28;20608;-74
2021/12/15 06:35:30;;;;;;;50.07;24.00;;;11.10;99.90;;;;;;5064006;28;20656;-74
2021/12/15 06:37:56;;;;;;;44.20;23.63;;;11.10;99.90;;;;;;5053510;28;21228;-75
2021/12/15 06:40:22;;;;;;;44.37;23.33;;;11.10;99.90;;;;;;5055642;28;20671;-75
2021/12/15 06:42:48;;;;;;;51.67;24.20;;;11.20;99.90;;;;;;5064447;28;20214;-75
2021/12/15 06:45:18;;;;;;;44.23;22.90;;;11.20;99.90;;;;;;5062139;28;20191;-75
2021/12/15 06:58:24;;;;;;;42.53;24.07;;;11.20;99.90;;;;;;5072847;28;20641;-74
2021/12/15 07:00:54;;;;;;;44.87;23.40;;;11.20;99.90;;;;;;5066353;28;20788;-75
2021/12/15 07:03:20;;;;;;;46.00;24.40;;;11.30;99.90;;;;;;5061501;28;21036;-75
2021/12/15 07:05:47;;;;;;;41.47;22.40;;;11.30;99.90;;;;;;5051161;28;20668;-75
2021/12/15 07:08:14;;;;;;;40.90;23.30;;;11.30;99.90;;;;;;5069303;28;20616;-76
2021/12/15 07:10:46;;;;;;;47.13;25.07;;;11.20;99.90;;;;;;5070447;28;20636;-75
2021/12/15 07:13:13;;;;;;;42.57;22.87;;;11.30;99.90;;;;;;5073954;28;20667;-75
2021/12/15 07:15:40;;;;;;;39.30;23.10;;;11.30;99.90;;;;;;5069835;28;20610;-75
2021/12/15 07:18:10;;;;;;;42.13;23.93;;;11.20;99.90;;;;;;5076591;28;20620;-75
2021/12/15 07:20:40;;;;;;;48.00;25.20;;;11.20;99.90;;;;;;5075055;28;20697;-75
2021/12/15 07:23:13;;;;;;;40.00;22.93;;;11.20;99.90;;;;;;5075406;28;20623;-75
2021/12/15 07:25:40;;;;;;;48.70;24.17;;;11.30;99.90;;;;;;5078497;28;20626;-75
2021/12/15 07:28:06;;;;;;;41.20;23.00;;;11.30;99.90;;;;;;5076141;28;20659;-75
2021/12/15 07:30:35;;;;;;;44.07;22.27;;;11.30;99.90;;;;;;5072470;28;20637;-74
2021/12/15 07:33:02;;;;;;;34.70;20.77;;;11.40;99.90;;;;;;5071950;28;20617;-75
2021/12/15 07:35:28;;;;;;;38.90;21.40;;;11.40;99.90;;;;;;5078026;28;20612;-75
2021/12/15 07:37:54;;;;;;;38.80;23.80;;;11.40;99.90;;;;;;5062379;28;20705;-75
2021/12/15 07:40:23;;;;;;;38.67;23.03;;;11.50;99.90;;;;;;5075955;28;20629;-74
2021/12/15 07:42:56;;;;;;;39.80;21.37;;;11.40;99.90;;;;;;5072862;28;20191;-74
2021/12/15 07:45:26;;;;;;;36.30;21.20;;;11.40;99.90;;;;;;5073898;28;20884;-75
2021/12/15 07:47:54;;;;;;;35.80;21.10;;;11.40;99.90;;;;;;5071565;28;20672;-75
2021/12/15 07:50:21;;;;;;;37.60;21.20;;;11.50;99.90;;;;;;5074880;28;20666;-75
2021/12/15 07:52:48;;;;;;;35.30;19.60;;;11.50;99.90;;;;;;5076671;28;20629;-75
2021/12/15 07:55:14;;;;;;;36.20;21.50;;;11.40;99.90;;;;;;5079110;28;20616;-75
2021/12/15 07:57:41;;;;;;;36.00;21.00;;;11.40;99.90;;;;;;5074175;28;20652;-75
2021/12/15 08:00:10;;;;;;;34.50;19.40;;;11.40;99.90;;;;;;5073849;28;21087;-75
2021/12/15 08:02:36;;;;;;;32.27;19.27;;;11.50;99.90;;;;;;5076385;28;20709;-75
2021/12/15 08:05:03;;;;;;;33.20;19.93;;;11.50;99.90;;;;;;5080737;28;20996;-75
2021/12/15 08:07:29;;;;;;;30.07;18.33;;;11.50;99.90;;;;;;5074880;28;20660;-75
2021/12/15 08:09:55;;;;;;;31.73;19.27;;;11.40;99.90;;;;;;5073793;28;20645;-74
2021/12/15 08:12:23;;;;;;;33.17;19.40;;;11.50;99.90;;;;;;5075467;28;20236;-74
2021/12/15 08:14:49;;;;;;;33.30;19.53;;;11.50;99.90;;;;;;5073745;28;20245;-74
2021/12/15 08:17:15;;;;;;;32.20;19.67;;;11.50;99.90;;;;;;5069294;28;20657;-75
2021/12/15 08:19:41;;;;;;;31.30;19.17;;;11.50;99.90;;;;;;5074205;28;20238;-76
2021/12/15 08:22:07;;;;;;;33.40;20.00;;;11.50;99.90;;;;;;5073496;28;20286;-75
2021/12/15 08:24:33;;;;;;;31.43;19.50;;;11.50;99.90;;;;;;5075720;28;20720;-74
2021/12/15 08:26:59;;;;;;;28.17;18.67;;;11.60;99.90;;;;;;5076374;28;20215;-74
2021/12/15 08:29:25;;;;;;;31.00;20.03;;;11.50;99.90;;;;;;5077024;28;20733;-75
2021/12/15 08:31:51;;;;;;;26.43;17.73;;;11.60;99.90;;;;;;5069772;28;20728;-74
2021/12/15 08:34:19;;;;;;;31.93;18.80;;;11.60;99.90;;;;;;5080926;28;20692;-78
2021/12/15 08:36:49;;;;;;;32.63;19.53;;;11.60;99.90;;;;;;5077456;28;20219;-75
2021/12/15 08:39:15;;;;;;;33.03;18.50;;;11.50;99.90;;;;;;5076562;28;20597;-75
2021/12/15 08:41:41;;;;;;;29.73;18.87;;;11.50;99.90;;;;;;5080603;28;21242;-75
2021/12/15 08:44:08;;;;;;;27.03;18.63;;;11.60;99.90;;;;;;5077430;28;20668;-75
2021/12/15 08:46:41;;;;;;;27.50;18.20;;;11.60;99.90;;;;;;5076946;28;21199;-76
2021/12/15 08:49:09;;;;;;;29.07;18.57;;;11.60;99.90;;;;;;5078576;28;20953;-75
2021/12/15 08:51:36;;;;;;;30.27;18.57;;;11.70;99.90;;;;;;5063370;28;20754;-74
2021/12/15 08:54:14;;;;;;;30.97;19.73;;;11.60;99.90;;;;;;5078063;28;21311;-75
2021/12/15 08:56:41;;;;;;;29.30;19.03;;;11.60;99.90;;;;;;5073557;28;20632;-74
2021/12/15 08:59:07;;;;;;;29.40;19.60;;;11.60;99.90;;;;;;5060515;28;20613;-75
2021/12/15 09:01:33;;;;;;;30.00;19.47;;;11.60;99.90;;;;;;5053552;28;21246;-75
2021/12/15 09:03:59;;;;;;;31.40;19.60;;;11.60;99.90;;;;;;5071428;28;20609;-75
2021/12/15 09:06:25;;;;;;;30.17;19.20;;;11.60;99.90;;;;;;5071666;28;21230;-75
2021/12/15 09:08:51;;;;;;;28.53;18.37;;;11.60;99.90;;;;;;5074788;28;20630;-74
2021/12/15 09:11:22;;;;;;;30.40;18.07;;;11.60;99.90;;;;;;5070961;28;20657;-75
2021/12/15 09:13:52;;;;;;;27.40;17.53;;;11.60;99.90;;;;;;5072976;28;20670;-75
2021/12/15 09:16:19;;;;;;;28.20;18.70;;;11.60;99.90;;;;;;5068857;28;20660;-75
2021/12/15 09:18:46;;;;;;;29.50;19.13;;;11.60;99.90;;;;;;5091010;28;20640;-75
2021/12/15 09:21:14;;;;;;;28.07;17.70;;;11.60;99.90;;;;;;5068220;28;20661;-75
2021/12/15 09:23:41;;;;;;;30.40;19.17;;;11.70;99.90;;;;;;5075962;28;21222;-75
2021/12/15 09:26:09;;;;;;;30.90;19.50;;;11.60;99.90;;;;;;5073375;28;20700;-75
2021/12/15 09:28:36;;;;;;;31.20;19.90;;;11.60;99.90;;;;;;5076799;28;20686;-75
2021/12/15 09:31:05;;;;;;;30.47;19.70;;;11.50;99.90;;;;;;5068629;28;20641;-75
2021/12/15 09:33:34;;;;;;;32.03;19.90;;;11.60;99.90;;;;;;5073855;28;21246;-75
2021/12/15 09:36:03;;;;;;;30.30;18.77;;;11.60;99.90;;;;;;5070148;28;21135;-75
2021/12/15 09:38:29;;;;;;;30.43;19.90;;;11.60;99.90;;;;;;5058106;28;20700;-75
2021/12/15 09:40:59;;;;;;;33.73;20.60;;;11.60;99.90;;;;;;5069234;28;20652;-75
2021/12/15 09:43:27;;;;;;;31.70;19.40;;;11.60;99.90;;;;;;5057832;28;20740;-75
2021/12/15 09:46:08;;;;;;;33.60;20.30;;;11.60;99.90;;;;;;5068869;28;20661;-75
2021/12/15 10:02:10;;;;;;;30.10;20.13;;;11.70;99.90;;;;;;5073780;28;20621;-74
2021/12/15 10:17:26;;;;;;;32.47;21.67;;;11.70;99.90;;;;;;5062725;28;20592;-74
2021/12/15 10:18:17;;;;;;;32.80;19.80;;;11.70;99.90;;;;;;5075087;28;20685;-73
2021/12/15 10:20:43;;;;;;;32.13;20.70;;;11.70;99.90;;;;;;5066641;28;21115;-74
2021/12/15 10:23:22;;;;;;;32.07;21.50;;;11.80;99.90;;;;;;5073474;28;21168;-75
2021/12/15 10:25:54;;;;;;;33.90;20.50;;;11.80;99.90;;;;;;5076358;28;20606;-75
2021/12/15 10:28:29;;;;;;;34.00;20.33;;;11.70;99.90;;;;;;5061186;28;20627;-74
2021/12/15 10:31:08;;;;;;;31.00;19.97;;;11.80;99.90;;;;;;5071490;28;21231;-74
2021/12/15 10:33:39;;;;;;;32.00;20.27;;;11.80;99.90;;;;;;5070462;28;20986;-74
2021/12/15 10:36:10;;;;;;;36.60;22.47;;;11.90;99.90;;;;;;5069910;28;20629;-74
2021/12/15 10:38:41;;;;;;;33.70;21.43;;;11.80;99.90;;;;;;5061393;28;20609;-74
2021/12/15 10:41:25;;;;;;;33.67;21.17;;;11.80;99.90;;;;;;5056299;28;20652;-75
2021/12/15 10:43:56;;;;;;;36.23;21.37;;;11.80;99.90;;;;;;5056839;28;20611;-76
2021/12/15 10:46:26;;;;;;;33.57;21.70;;;11.80;99.90;;;;;;5061258;28;20644;-75
2021/12/15 10:48:58;;;;;;;35.17;21.80;;;11.80;99.90;;;;;;5062279;28;20597;-75
2021/12/15 10:51:45;;;;;;;37.77;23.23;;;11.80;99.90;;;;;;5063417;28;20645;-75
2021/12/15 10:54:12;;;;;;;35.43;21.73;;;11.80;99.90;;;;;;5070538;28;20651;-74
2021/12/15 10:56:47;;;;;;;32.83;20.77;;;11.80;99.90;;;;;;5069109;28;21057;-75
2021/12/15 10:59:14;;;;;;;34.87;21.57;;;11.80;99.90;;;;;;5067942;28;20629;-75
2021/12/15 11:01:59;;;;;;;35.90;23.20;;;11.80;99.90;;;;;;5070921;28;20672;-74
2021/12/15 11:04:39;;;;;;;33.27;20.50;;;11.80;99.90;;;;;;5075315;28;20573;-76
2021/12/15 11:07:10;;;;;;;35.87;21.33;;;11.80;99.90;;;;;;5072276;28;20664;-74
2021/12/15 11:09:57;;;;;;;35.70;23.90;;;11.90;99.90;;;;;;5076509;28;21193;-76
2021/12/15 11:12:36;;;;;;;33.10;21.47;;;11.80;99.90;;;;;;5073793;28;20642;-76
2021/12/15 11:15:16;;;;;;;34.10;20.83;;;11.80;99.90;;;;;;5073186;28;20720;-75
2021/12/15 11:17:48;;;;;;;35.20;21.37;;;11.80;99.90;;;;;;5074771;28;20740;-76
2021/12/15 11:20:19;;;;;;;36.60;22.63;;;11.90;99.90;;;;;;5075811;28;20667;-76
2021/12/15 11:23:12;;;;;;;40.77;24.73;;;11.90;99.90;;;;;;5077486;28;21263;-76
2021/12/15 11:25:49;;;;;;;35.40;21.90;;;11.90;99.90;;;;;;5076343;28;20577;-75
2021/12/15 11:28:29;;;;;;;34.10;21.80;;;11.90;99.90;;;;;;5071853;28;20987;-75
2021/12/15 11:31:02;;;;;;;34.13;21.67;;;11.90;99.90;;;;;;5072172;28;20641;-75
2021/12/15 11:33:32;;;;;;;34.13;22.13;;;12.00;99.90;;;;;;5077479;28;20936;-75
2021/12/15 11:36:27;;;;;;;37.97;22.57;;;12.00;99.90;;;;;;5076614;28;20614;-76
2021/12/15 11:38:56;;;;;;;33.03;21.10;;;12.00;99.90;;;;;;5070174;28;20628;-74
2021/12/15 11:41:53;;;;;;;34.93;21.77;;;11.90;99.90;;;;;;5059166;28;21005;-74
2021/12/15 11:44:25;;;;;;;33.20;21.37;;;12.00;99.90;;;;;;5074498;28;21608;-76
2021/12/15 11:47:01;;;;;;;33.97;21.87;;;12.00;99.90;;;;;;5073308;28;20656;-75
2021/12/15 11:49:30;;;;;;;39.33;23.60;;;12.00;99.90;;;;;;5075651;28;21065;-74
2021/12/15 11:52:05;;;;;;;34.17;22.40;;;12.00;99.90;;;;;;5073297;28;20606;-75
2021/12/15 11:54:33;;;;;;;34.20;21.80;;;12.00;99.90;;;;;;5059560;28;20617;-74
2021/12/15 11:57:24;;;;;;;35.63;22.87;;;12.00;99.90;;;;;;5075413;28;20649;-75
2021/12/15 11:59:53;;;;;;;32.53;22.07;;;12.00;99.90;;;;;;5072362;28;20663;-75
2021/12/15 12:02:23;;;;;;;35.87;21.73;;;12.00;99.90;;;;;;5072429;28;20742;-75
2021/12/15 12:04:56;;;;;;;35.13;21.57;;;11.90;99.90;;;;;;5063984;28;20623;-74
2021/12/15 12:07:26;;;;;;;35.27;21.47;;;12.00;99.90;;;;;;5074611;28;20640;-74
2021/12/15 12:10:04;;;;;;;36.00;22.70;;;12.00;99.90;;;;;;5076356;28;20665;-74
2021/12/15 12:12:37;;;;;;;34.23;20.90;;;12.00;99.90;;;;;;5078451;28;20589;-75
2021/12/15 12:15:12;;;;;;;36.10;22.70;;;12.00;99.90;;;;;;5076901;28;20625;-75
2021/12/15 12:17:39;;;;;;;35.60;21.93;;;12.00;99.90;;;;;;5078243;28;21177;-74
2021/12/15 12:20:09;;;;;;;33.00;23.07;;;11.90;99.90;;;;;;5078467;28;20638;-75
2021/12/15 12:22:37;;;;;;;34.63;20.93;;;12.00;99.90;;;;;;5063133;28;20741;-74
2021/12/15 12:25:14;;;;;;;38.47;23.70;;;12.10;99.90;;;;;;5078816;28;20585;-75
2021/12/15 12:27:41;;;;;;;36.60;21.80;;;12.00;99.90;;;;;;5074301;28;21094;-74
2021/12/15 12:30:24;;;;;;;36.00;22.10;;;12.10;99.90;;;;;;5076660;28;20629;-75
2021/12/15 12:32:51;;;;;;;34.47;22.30;;;12.10;99.90;;;;;;5070834;28;21209;-75
2021/12/15 12:35:23;;;;;;;34.37;22.60;;;12.00;99.90;;;;;;5071063;28;20618;-74
2021/12/15 12:37:59;;;;;;;33.27;20.97;;;12.00;99.90;;;;;;5070662;28;20641;-75
2021/12/15 12:40:29;;;;;;;33.90;20.40;;;12.00;99.90;;;;;;5075310;28;20620;-75
2021/12/15 12:42:55;;;;;;;31.90;21.73;;;12.10;99.90;;;;;;5072670;28;20699;-74
2021/12/15 12:45:32;;;;;;;31.90;19.97;;;12.10;99.90;;;;;;5071416;28;21212;-75
2021/12/15 12:48:33;;;;;;;34.17;20.87;;;12.10;99.90;;;;;;5073110;28;20639;-74
2021/12/15 12:57:56;;;;;;;35.77;21.53;;;12.10;99.90;;;;;;5064362;28;20637;-74
2021/12/15 13:00:20;;;;;;;29.60;19.27;;;12.00;99.90;;;;;;5074108;28;21080;-74
2021/12/15 13:02:50;;;;;;;32.90;20.33;;;12.00;99.90;;;;;;5076146;28;20649;-74
2021/12/15 13:05:50;;;;;;;30.90;21.63;;;12.00;99.90;;;;;;5078394;28;20609;-75
2021/12/15 13:08:29;;;;;;;31.73;20.27;;;12.00;99.90;;;;;;5023330;28;20628;-74
2021/12/15 13:10:54;;;;;;;30.67;19.30;;;12.00;99.90;;;;;;5075162;28;21064;-74
2021/12/15 13:13:29;;;;;;;30.77;19.33;;;12.00;99.90;;;;;;5075295;28;20950;-74
2021/12/15 13:16:03;;;;;;;28.43;20.90;;;12.00;99.90;;;;;;5072170;28;20189;-76
2021/12/15 13:18:43;;;;;;;31.43;20.43;;;12.00;99.90;;;;;;5071353;28;20585;-75
2021/12/15 13:21:15;;;;;;;27.77;19.10;;;11.90;99.90;;;;;;5077599;28;20644;-75
2021/12/15 13:23:48;;;;;;;29.27;19.00;;;12.00;99.90;;;;;;5074822;28;21062;-74
2021/12/15 13:29:49;;;;;;;29.97;20.43;;;11.90;99.90;;;;;;5074401;28;20635;-75
2021/12/15 13:32:15;;;;;;;28.63;18.50;;;11.90;99.90;;;;;;5072245;28;20982;-75
2021/12/15 13:34:48;;;;;;;28.50;19.13;;;11.90;99.90;;;;;;5061111;28;20899;-75
2021/12/15 13:37:55;;;;;;;29.43;18.30;;;11.90;99.90;;;;;;5061061;28;20212;-75
2021/12/15 13:40:55;;;;;;;32.23;20.63;;;11.90;99.90;;;;;;5057985;28;20672;-75
2021/12/15 13:43:43;;;;;;;27.47;17.63;;;11.90;99.90;;;;;;5074529;28;20704;-74
2021/12/15 13:46:30;;;;;;;26.10;17.87;;;11.90;99.90;;;;;;5073926;28;20628;-74
2021/12/15 13:49:16;;;;;;;27.03;18.97;;;11.90;99.90;;;;;;5053415;28;20620;-74
2021/12/15 13:51:54;;;;;;;27.60;18.23;;;11.90;99.90;;;;;;5090130;28;20661;-75
2021/12/15 13:54:37;;;;;;;25.10;18.33;;;11.90;99.90;;;;;;5057119;28;20938;-76
2021/12/15 13:57:14;;;;;;;23.20;16.40;;;11.90;99.90;;;;;;5071667;28;20641;-75
2021/12/15 13:59:48;;;;;;;26.70;18.90;;;11.90;99.90;;;;;;5065662;28;20642;-75
2021/12/15 14:02:16;;;;;;;24.53;18.33;;;11.90;99.90;;;;;;5067963;28;21077;-74